ENMS/MJF METAR and TAF weather

Enter ICAO airport designator
Station Type Date Time Source
ENMS METAR 2022/01/18 07:50 UTC NOAA

ENMS 180750Z VRB007KT 9999 -RA BKN00 05/02 Q1007 RMK WIND 412FT VRB09G20KT


Station Type Date Time Source
ENMS Decoded METAR 2022/01/18 07:50 UTC NOAA

Mosjoen Kjaerstad, Norway (ENMS) 65-48N 013-08E
Jan 18, 2022 - 02:50 AM EST / 2022.01.18 0750 UTC
Wind: Variable at 8 MPH (7 KT):0
Visibility: greater than 7 mile(s):0
Sky conditions: mostly cloudy
Weather: light rain
Temperature: 41 F (5 C)
Dew Point: 35 F (2 C)
Relative Humidity: 80%
Pressure (altimeter): 29.74 in. Hg (1007 hPa)
ob: ENMS 180750Z VRB007KT 9999 -RA BKN00 05/02 Q1007 RMK WIND 412FT VRB09G20KT
cycle: 8

Station Type Date Time Source
ENMS TAF UTC NOAA

Error!

Example: see airport list